Time;durP1;ratioP1;P1;durP2;ratioP2;P2;SDS_P1;SDS_P2;PMS_P1;PMS_P2;Temp;Humidity;BMP_temperature;BMP_pressure;BME280_temperature;BME280_humidity;BME280_pressure;Samples;Min_cycle;Max_cycle;Signal;HPM_P1;HPM_P2
2021/04/13 00:02:16;;;;;;;11.63;6.75;;;;;;;8.82;62.14;100834.81;5049981;28;20044;-73
2021/04/13 00:04:42;;;;;;;10.15;7.43;;;;;;;8.56;63.28;100829.25;5050276;28;20107;-74
2021/04/13 00:07:08;;;;;;;12.48;7.93;;;;;;;8.63;63.04;100821.84;5050758;28;20112;-74
2021/04/13 00:09:35;;;;;;;13.05;7.78;;;;;;;8.75;62.70;100827.59;5051174;28;20036;-72
2021/04/13 00:12:11;;;;;;;11.10;7.10;;;;;;;8.87;62.10;100825.63;5050904;28;20063;-73
2021/04/13 00:14:41;;;;;;;13.60;7.05;;;;;;;8.87;62.03;100815.34;5051229;28;20025;-71
2021/04/13 00:17:12;;;;;;;12.85;7.95;;;;;;;8.60;62.04;100767.63;5050616;28;20025;-71
2021/04/13 00:19:46;;;;;;;11.20;7.30;;;;;;;8.76;62.68;100815.59;5051004;28;20021;-72
2021/04/13 00:22:12;;;;;;;9.48;7.70;;;;;;;8.75;62.65;100814.72;5050807;28;20108;-74
2021/04/13 00:24:38;;;;;;;10.60;7.40;;;;;;;8.73;62.25;100785.44;5050895;28;20032;-71
2021/04/13 00:27:04;;;;;;;13.88;8.15;;;;;;;8.96;61.87;100819.16;5050942;28;20025;-71
2021/04/13 00:29:32;;;;;;;10.23;7.03;;;;;;;8.94;61.67;100823.38;5051039;28;20063;-72
2021/04/13 00:32:00;;;;;;;8.65;7.22;;;;;;;8.99;61.34;100827.91;5050051;28;20029;-73
2021/04/13 00:34:35;;;;;;;10.30;7.40;;;;;;;8.98;61.30;100810.69;5050536;28;20029;-72
2021/04/13 00:37:12;;;;;;;17.80;9.48;;;;;;;9.00;61.53;100815.94;5050747;28;20061;-71
2021/04/13 00:39:38;;;;;;;34.70;17.90;;;;;;;8.97;61.43;100808.94;5050856;28;20036;-76
2021/04/13 00:42:08;;;;;;;14.45;9.57;;;;;;;9.03;61.55;100808.34;5050332;28;20021;-76
2021/04/13 00:44:40;;;;;;;32.28;16.90;;;;;;;9.10;61.32;100802.69;5050403;28;20029;-72
2021/04/13 00:47:11;;;;;;;13.93;8.63;;;;;;;9.16;61.05;100810.72;5050790;28;20020;-72
2021/04/13 00:49:44;;;;;;;17.95;10.77;;;;;;;8.83;60.80;100746.47;5050566;28;20021;-73
2021/04/13 00:52:19;;;;;;;23.52;12.85;;;;;;;9.11;60.80;100807.03;5050698;28;20036;-71
2021/04/13 00:54:56;;;;;;;41.55;18.75;;;;;;;8.92;61.50;100806.94;5050215;28;20052;-72
2021/04/13 00:57:27;;;;;;;54.88;25.90;;;;;;;8.87;61.35;100809.28;5040456;28;20037;-73
2021/04/13 00:59:56;;;;;;;13.30;8.95;;;;;;;8.42;62.71;100807.03;5047069;28;20502;-73
2021/04/13 01:02:27;;;;;;;12.13;7.68;;;;;;;7.83;64.50;100791.13;5050320;28;20048;-71
2021/04/13 01:05:14;;;;;;;12.88;7.60;;;;;;;7.96;64.64;100809.78;5049276;28;20091;-73
2021/04/13 01:07:44;;;;;;;11.07;7.78;;;;;;;7.97;64.60;100822.72;5050095;28;20422;-73
2021/04/13 01:10:12;;;;;;;;;;;;;;;7.91;64.75;100812.09;5051050;28;20052;-73
2021/04/13 01:12:47;;;;;;;9.60;8.07;;;;;;;7.87;64.96;100808.47;5050349;28;19920;-72
2021/04/13 01:15:15;;;;;;;15.07;8.57;;;;;;;7.72;65.33;100803.41;5050346;28;20029;-73
2021/04/13 01:17:42;;;;;;;12.50;7.88;;;;;;;7.67;65.56;100798.84;5054052;28;20037;-73
2021/04/13 01:20:41;;;;;;;13.65;8.10;;;;;;;7.72;65.39;100789.69;5053685;28;20179;-73
2021/04/13 01:23:17;;;;;;;11.75;8.38;;;;;;;7.43;65.59;100747.91;5051352;28;20055;-73
2021/04/13 01:25:45;;;;;;;13.55;9.57;;;;;;;7.68;65.65;100796.34;5051201;28;20055;-73
2021/04/13 01:28:18;;;;;;;12.18;8.35;;;;;;;7.80;65.42;100793.56;5051776;28;20029;-73
2021/04/13 01:30:50;;;;;;;12.05;8.48;;;;;;;7.88;64.83;100796.53;5051441;28;20040;-73
2021/04/13 01:33:35;;;;;;;12.68;9.00;;;;;;;7.86;64.94;100790.41;5051258;28;20071;-72
2021/04/13 01:36:00;;;;;;;12.30;8.35;;;;;;;7.51;66.01;100781.69;5051143;28;20028;-73
2021/04/13 01:38:39;;;;;;;13.68;8.70;;;;;;;7.48;65.89;100773.81;5051500;28;20025;-73
2021/04/13 01:43:40;;;;;;;11.73;8.45;;;;;;;7.33;66.76;100790.16;5051189;28;20032;-73
2021/04/13 01:46:09;;;;;;;14.77;9.15;;;;;;;6.96;66.85;100729.94;5050947;28;20037;-73
2021/04/13 01:48:35;;;;;;;60.33;22.17;;;;;;;7.29;66.91;100785.69;5051155;28;20610;-74
2021/04/13 01:51:04;;;;;;;15.80;9.27;;;;;;;7.40;66.99;100788.81;5050914;28;20131;-72
2021/04/13 01:53:39;;;;;;;278.00;87.20;;;;;;;7.16;66.57;100735.31;5050768;28;20041;-72
2021/04/13 01:56:12;;;;;;;89.55;32.65;;;;;;;7.37;66.95;100791.22;5050532;28;20553;-74
2021/04/13 01:58:47;;;;;;;69.13;26.75;;;;;;;7.51;66.42;100787.72;5051076;28;20048;-74
2021/04/13 02:01:28;;;;;;;34.22;16.13;;;;;;;7.18;66.19;100726.00;5047112;28;20098;-73
2021/04/13 02:04:16;;;;;;;31.10;14.73;;;;;;;7.53;66.10;100792.97;5053096;28;20147;-73
2021/04/13 02:07:02;;;;;;;17.15;9.77;;;;;;;7.12;67.39;100788.16;5052994;28;20479;-74
2021/04/13 02:09:40;;;;;;;17.25;9.98;;;;;;;7.15;67.58;100792.59;5051659;28;20016;-73
2021/04/13 02:12:16;;;;;;;15.88;9.65;;;;;;;7.24;67.31;100787.97;5053046;28;20027;-76
2021/04/13 02:14:49;;;;;;;15.98;10.63;;;;;;;7.31;66.81;100785.75;5053079;28;20029;-73
2021/04/13 02:17:23;;;;;;;18.52;12.23;;;;;;;7.12;67.29;100756.47;5053013;28;20021;-73
2021/04/13 02:19:51;;;;;;;21.83;13.60;;;;;;;6.55;68.08;100720.78;5053107;28;20067;-72
2021/04/13 02:22:19;;;;;;;16.60;10.80;;;;;;;6.80;68.03;100768.38;5052488;28;20108;-72
2021/04/13 02:24:46;;;;;;;13.75;9.75;;;;;;;6.87;67.98;100777.34;5052697;28;20017;-74
2021/04/13 02:27:20;;;;;;;18.35;10.77;;;;;;;6.77;68.04;100781.06;5052305;28;20055;-73
2021/04/13 02:30:01;;;;;;;13.77;9.25;;;;;;;6.83;68.10;100783.06;5052854;28;20021;-73
2021/04/13 02:32:32;;;;;;;28.77;25.95;;;;;;;6.91;67.85;100782.72;5052398;28;20029;-73
2021/04/13 02:35:05;;;;;;;26.17;23.40;;;;;;;6.69;68.39;100765.22;5051680;28;20021;-72
2021/04/13 02:37:36;;;;;;;18.50;12.55;;;;;;;6.78;68.15;100786.25;5052552;28;20032;-75
2021/04/13 02:40:26;;;;;;;13.50;9.70;;;;;;;6.88;68.25;100779.97;5052475;28;20064;-72
2021/04/13 02:42:54;;;;;;;;;;;;;;;6.79;67.94;100782.00;5052562;28;20091;-73
2021/04/13 02:45:27;;;;;;;12.30;7.93;;;;;;;6.67;68.26;100781.31;5052184;28;19913;-72
2021/04/13 02:48:01;;;;;;;18.75;10.15;;;;;;;6.62;67.98;100758.84;5051951;28;20021;-72
2021/04/13 02:50:30;;;;;;;12.70;9.35;;;;;;;6.43;67.68;100709.84;5052458;28;20021;-73
2021/04/13 02:52:56;;;;;;;10.73;8.77;;;;;;;6.97;67.32;100784.75;5052175;28;20032;-72
2021/04/13 02:55:28;;;;;;;13.65;9.88;;;;;;;7.08;66.66;100778.53;5052802;28;20547;-73
2021/04/13 02:57:59;;;;;;;13.70;10.20;;;;;;;7.16;66.04;100776.38;5052145;28;20028;-74
2021/04/13 03:00:31;;;;;;;16.80;10.77;;;;;;;6.99;65.98;100754.94;5052496;28;20456;-73
2021/04/13 03:03:06;;;;;;;24.35;12.82;;;;;;;7.10;66.14;100776.03;5051627;28;20503;-74
2021/04/13 03:05:33;;;;;;;16.65;11.75;;;;;;;7.07;66.58;100775.88;5050720;28;20104;-77
2021/04/13 03:08:05;;;;;;;15.25;10.20;;;;;;;7.03;70.12;100769.69;5051853;28;20055;-73
2021/04/13 03:10:35;;;;;;;14.98;10.55;;;;;;;6.63;71.78;100727.25;5051791;28;20561;-72
2021/04/13 03:13:09;;;;;;;22.20;12.43;;;;;;;6.66;72.69;100765.03;5051738;28;20057;-73
2021/04/13 03:15:38;;;;;;;59.92;15.65;;;;;;;6.86;72.12;100776.44;5051628;28;20104;-72
2021/04/13 03:18:13;;;;;;;112.40;30.67;;;;;;;7.03;71.30;100789.31;5050739;28;20029;-77
2021/04/13 03:20:43;;;;;;;33.80;14.27;;;;;;;6.69;70.09;100733.53;5051478;28;20192;-74
2021/04/13 03:23:11;;;;;;;28.40;12.93;;;;;;;6.94;69.49;100782.00;5051616;28;20021;-73
2021/04/13 03:25:41;;;;;;;23.05;11.18;;;;;;;6.87;69.14;100770.50;5051718;28;20081;-73
2021/04/13 03:28:10;;;;;;;64.68;27.33;;;;;;;6.77;69.14;100765.66;5050684;28;20032;-73
2021/04/13 03:30:39;;;;;;;22.00;10.90;;;;;;;6.40;69.54;100732.75;5051345;28;20032;-72
2021/04/13 03:33:15;;;;;;;17.63;10.30;;;;;;;6.31;70.99;100756.19;5051473;28;20023;-74
2021/04/13 03:35:41;;;;;;;18.03;10.40;;;;;;;6.02;71.24;100718.56;5051361;28;20061;-74
2021/04/13 03:38:09;;;;;;;15.20;9.90;;;;;;;6.31;71.22;100767.31;5051714;28;20033;-74
2021/04/13 03:40:42;;;;;;;16.37;11.60;;;;;;;6.36;71.52;100785.53;5049434;28;20066;-74
2021/04/13 03:43:16;;;;;;;12.70;9.90;;;;;;;6.35;71.65;100790.59;5051327;28;20031;-74
2021/04/13 03:45:44;;;;;;;13.50;10.33;;;;;;;6.22;72.03;100796.66;5051361;28;20029;-72
2021/04/13 03:48:18;;;;;;;13.70;9.63;;;;;;;5.31;74.16;100797.09;5051082;28;20031;-74
2021/04/13 03:50:44;;;;;;;16.33;11.23;;;;;;;5.51;73.59;100798.34;5051506;28;20032;-72
2021/04/13 03:53:13;;;;;;;14.97;10.23;;;;;;;5.43;73.39;100812.31;5051009;28;20017;-73
2021/04/13 03:55:40;;;;;;;17.77;10.23;;;;;;;5.43;73.16;100814.88;5051122;28;20495;-73
2021/04/13 03:58:19;;;;;;;96.70;36.27;;;;;;;5.51;72.76;100812.00;5051058;28;20490;-73
2021/04/13 04:00:45;;;;;;;69.90;24.20;;;;;;;5.17;73.62;100808.97;5051474;28;20112;-73
2021/04/13 04:03:11;;;;;;;15.30;10.63;;;;;;;4.77;73.30;100737.34;5050957;28;20510;-71
2021/04/13 04:05:44;;;;;;;15.80;11.00;;;;;;;5.17;73.47;100788.50;5050893;28;20490;-73
2021/04/13 04:08:22;;;;;;;14.70;10.77;;;;;;;5.36;72.82;100793.13;5049817;28;20116;-73
2021/04/13 04:10:52;;;;;;;32.20;17.07;;;;;;;5.23;72.80;100735.13;5050714;28;20043;-72
2021/04/13 04:13:17;;;;;;;22.33;14.82;;;;;;;5.81;71.60;100798.47;5050131;28;20418;-72
2021/04/13 04:15:46;;;;;;;19.33;12.60;;;;;;;5.67;71.25;100775.44;5050235;28;20033;-72
2021/04/13 04:18:47;;;;;;;15.17;11.50;;;;;;;5.75;71.64;100811.75;5050920;28;20049;-74
2021/04/13 04:21:35;;;;;;;20.13;14.70;;;;;;;5.72;72.11;100816.72;5028117;28;20037;-71
2021/04/13 04:24:18;;;;;;;21.17;12.50;;;;;;;5.21;73.31;100774.22;5011556;28;21025;-73
2021/04/13 04:26:51;;;;;;;19.63;12.03;;;;;;;5.69;72.62;100818.19;5027941;28;20148;-72
2021/04/13 04:29:17;;;;;;;16.27;10.80;;;;;;;5.78;72.81;100829.00;5028307;28;20087;-75
2021/04/13 04:31:43;;;;;;;15.67;10.90;;;;;;;5.33;74.12;100819.44;5028301;28;20045;-74
2021/04/13 04:34:14;;;;;;;17.80;12.50;;;;;;;5.12;75.46;100830.84;5011506;28;20597;-76
2021/04/13 04:36:45;;;;;;;19.80;13.27;;;;;;;5.18;75.46;100821.00;5028271;28;20021;-80
2021/04/13 04:39:28;;;;;;;22.23;15.37;;;;;;;5.53;74.08;100832.59;5027983;28;20095;-75
2021/04/13 04:41:56;;;;;;;64.20;33.50;;;;;;;5.59;74.35;100832.09;5027992;28;20084;-75
2021/04/13 04:44:27;;;;;;;77.37;41.80;;;;;;;5.59;74.21;100824.41;5027752;28;20099;-77
2021/04/13 04:46:59;;;;;;;48.27;29.97;;;;;;;5.66;74.59;100835.13;5027791;28;20108;-76
2021/04/13 04:49:39;;;;;;;52.70;28.67;;;;;;;5.46;74.31;100805.72;5027811;28;20033;-75
2021/04/13 04:52:06;;;;;;;46.03;27.63;;;;;;;5.32;75.75;100827.00;5014940;28;20046;-75
2021/04/13 04:54:32;;;;;;;35.73;22.03;;;;;;;5.27;76.39;100787.41;5028009;28;20534;-75
2021/04/13 04:56:57;;;;;;;33.87;19.33;;;;;;;5.48;76.21;100800.69;5037099;28;20041;-75
2021/04/13 04:59:23;;;;;;;90.13;44.27;;;;;;;5.79;76.13;100823.97;5054744;28;20048;-75
2021/04/13 05:01:49;;;;;;;32.53;19.67;;;;;;;5.70;77.21;100827.66;5052689;28;20052;-75
2021/04/13 05:04:14;;;;;;;28.63;17.50;;;;;;;5.56;77.07;100773.88;5054518;28;20028;-75
2021/04/13 05:06:40;;;;;;;28.63;17.20;;;;;;;5.99;77.48;100843.19;5051137;28;20043;-74
2021/04/13 05:09:05;;;;;;;23.20;15.63;;;;;;;6.10;77.49;100813.06;5048567;28;20024;-76
2021/04/13 05:11:31;;;;;;;34.67;18.97;;;;;;;6.40;76.77;100820.81;5054119;28;20398;-74
2021/04/13 05:13:56;;;;;;;30.97;17.67;;;;;;;6.59;75.96;100820.25;5051705;28;20475;-76
2021/04/13 05:16:23;;;;;;;26.03;17.03;;;;;;;6.78;75.59;100826.44;5038501;28;20049;-75
2021/04/13 05:18:49;;;;;;;32.67;19.67;;;;;;;6.69;74.56;100769.47;5035373;28;20025;-75
2021/04/13 05:21:15;;;;;;;61.83;30.45;;;;;;;7.17;74.03;100819.25;5042189;28;20026;-76
2021/04/13 05:23:40;;;;;;;32.95;20.55;;;;;;;7.34;74.14;100816.72;5048173;28;20453;-76
2021/04/13 05:26:06;;;;;;;27.15;18.20;;;;;;;6.85;73.53;100714.75;5037979;28;20025;-76
2021/04/13 05:28:33;;;;;;;30.33;20.17;;;;;;;7.65;72.67;100818.41;5035287;28;20025;-74
2021/04/13 05:30:59;;;;;;;139.85;58.05;;;;;;;7.72;72.33;100813.69;5036000;28;20065;-77
2021/04/13 05:33:25;;;;;;;25.63;18.13;;;;;;;7.50;72.79;100829.63;5034241;28;20045;-74
2021/04/13 05:35:51;;;;;;;35.75;20.58;;;;;;;7.66;73.07;100827.91;5034124;28;20026;-77
2021/04/13 05:38:23;;;;;;;20.92;14.63;;;;;;;7.32;73.22;100831.19;5064533;28;20060;-75
2021/04/13 05:40:49;;;;;;;23.42;16.25;;;;;;;7.41;73.72;100826.53;5035651;28;20084;-74
2021/04/13 05:43:19;;;;;;;223.70;89.50;;;;;;;7.41;72.83;100780.31;5036367;28;20435;-78
2021/04/13 05:45:47;;;;;;;31.42;19.50;;;;;;;7.63;73.33;100832.84;5033605;28;20026;-75
2021/04/13 05:48:13;;;;;;;22.95;16.70;;;;;;;7.30;75.39;100828.50;5038783;28;20017;-77
2021/04/13 05:50:42;;;;;;;21.00;15.73;;;;;;;7.24;76.84;100828.16;5045487;28;20087;-74
2021/04/13 05:53:08;;;;;;;22.55;15.50;;;;;;;7.35;77.27;100800.53;5052651;28;20025;-74
2021/04/13 05:55:34;;;;;;;23.70;16.00;;;;;;;7.37;76.64;100819.47;5059485;28;20087;-73
2021/04/13 05:58:04;;;;;;;19.08;14.93;;;;;;;7.38;76.53;100795.56;5053454;28;20033;-77
2021/04/13 06:00:30;;;;;;;20.58;15.68;;;;;;;7.67;76.62;100821.97;5051960;28;20067;-74
2021/04/13 06:02:56;;;;;;;18.77;15.40;;;;;;;7.60;78.46;100808.78;5046818;28;20057;-74
2021/04/13 06:05:25;;;;;;;20.13;14.32;;;;;;;7.91;79.44;100810.44;5043581;28;20042;-73
2021/04/13 06:07:51;;;;;;;27.97;14.53;;;;;;;8.21;77.61;100812.84;5036569;28;20071;-72
2021/04/13 06:10:17;;;;;;;16.73;13.07;;;;;;;8.40;75.79;100813.81;5040398;28;20032;-73
2021/04/13 06:12:43;;;;;;;19.45;13.93;;;;;;;8.71;74.87;100805.97;5046530;28;20029;-73
2021/04/13 06:15:13;;;;;;;15.63;13.30;;;;;;;8.95;74.32;100809.66;5052080;28;20402;-71
2021/04/13 06:17:39;;;;;;;16.27;13.18;;;;;;;9.04;74.39;100807.53;5051391;28;20086;-74
2021/04/13 06:20:06;;;;;;;15.35;13.27;;;;;;;8.92;74.54;100794.94;5051874;28;20036;-72
2021/04/13 06:22:31;;;;;;;19.50;13.60;;;;;;;8.86;74.22;100749.19;5051910;28;20017;-74
2021/04/13 06:24:57;;;;;;;16.55;13.60;;;;;;;9.11;72.22;100772.66;5052046;28;20047;-76
2021/04/13 06:27:22;;;;;;;16.52;13.50;;;;;;;9.40;71.35;100774.03;5052276;28;20178;-73
2021/04/13 06:29:47;;;;;;;16.08;12.57;;;;;;;9.58;70.76;100770.53;5051579;28;20452;-75
2021/04/13 06:32:13;;;;;;;20.92;15.35;;;;;;;9.82;70.65;100781.06;5048769;28;20033;-77
2021/04/13 06:34:39;;;;;;;16.20;12.70;;;;;;;9.80;70.12;100774.97;5050334;28;20558;-72
2021/04/13 06:37:07;;;;;;;18.85;14.23;;;;;;;9.60;69.52;100727.69;5051793;28;20021;-74
2021/04/13 06:39:35;;;;;;;17.02;13.60;;;;;;;9.89;69.02;100785.69;5050866;28;20125;-72
2021/04/13 06:42:04;;;;;;;18.05;14.10;;;;;;;10.01;69.48;100777.63;5050379;28;20075;-75
2021/04/13 06:44:49;;;;;;;212.65;88.30;;;;;;;9.90;68.70;100774.56;5051613;28;20025;-74
2021/04/13 06:47:33;;;;;;;21.25;14.60;;;;;;;10.09;67.40;100778.84;5051284;28;20036;-77
2021/04/13 06:50:10;;;;;;;20.35;13.52;;;;;;;10.23;66.92;100783.72;5051645;28;20387;-72
2021/04/13 06:52:51;;;;;;;19.30;12.68;;;;;;;10.31;65.66;100775.50;5049225;28;20037;-75
2021/04/13 06:55:32;;;;;;;17.73;12.75;;;;;;;10.31;64.50;100782.38;5051372;28;20025;-72
2021/04/13 06:58:16;;;;;;;22.15;12.20;;;;;;;10.11;65.27;100790.13;5040471;28;20029;-74
2021/04/13 07:01:11;;;;;;;17.08;11.88;;;;;;;10.06;64.54;100737.44;5035544;28;20044;-72
2021/04/13 07:03:58;;;;;;;13.38;11.30;;;;;;;10.61;63.12;100798.28;5009747;28;20045;-73
2021/04/13 07:06:33;;;;;;;20.08;12.10;;;;;;;10.65;62.51;100788.97;5010264;28;20539;-72
2021/04/13 07:09:07;;;;;;;19.27;11.98;;;;;;;10.66;62.47;100781.28;5010222;28;20481;-73
2021/04/13 07:11:40;;;;;;;18.92;13.45;;;;;;;10.26;63.50;100732.25;5009133;28;20036;-75
2021/04/13 07:14:38;;;;;;;19.52;13.30;;;;;;;10.81;62.67;100791.38;4992912;28;20037;-74
2021/04/13 07:17:35;;;;;;;18.63;12.07;;;;;;;10.92;61.38;100789.25;4959132;28;20058;-78
2021/04/13 07:20:07;;;;;;;21.20;13.30;;;;;;;11.10;62.22;100795.97;4970136;28;20031;-79
2021/04/13 07:22:59;;;;;;;19.75;12.48;;;;;;;11.32;61.76;100789.94;4969671;28;20041;-77
2021/04/13 07:25:33;;;;;;;16.67;12.38;;;;;;;11.30;62.06;100797.66;4931442;29;20035;-79
2021/04/13 07:28:06;;;;;;;19.40;12.85;;;;;;;11.19;63.28;100770.50;4931536;29;20050;-75
2021/04/13 07:31:00;;;;;;;16.92;13.77;;;;;;;11.43;62.71;100788.66;4931623;29;20083;-77
2021/04/13 07:33:29;;;;;;;20.17;13.10;;;;;;;11.51;61.14;100782.91;4873195;29;20037;-75
2021/04/13 07:36:00;;;;;;;18.20;12.10;;;;;;;11.42;61.28;100773.09;4874792;29;20041;-75
2021/04/13 07:38:31;;;;;;;18.73;13.05;;;;;;;11.54;61.18;100786.50;4874933;29;20108;-76
2021/04/13 07:41:05;;;;;;;19.83;13.00;;;;;;;11.38;62.01;100782.44;4863235;29;20048;-77
2021/04/13 07:43:38;;;;;;;18.13;13.63;;;;;;;11.49;62.03;100772.50;4854728;29;20093;-76
2021/04/13 07:46:28;;;;;;;18.73;14.20;;;;;;;11.48;63.38;100766.44;4856295;29;20447;-77
2021/04/13 07:49:15;;;;;;;19.90;14.88;;;;;;;11.64;62.46;100772.22;4856323;29;20038;-78
2021/04/13 07:51:55;;;;;;;20.05;15.57;;;;;;;11.70;61.84;100774.13;4855699;29;20061;-77
2021/04/13 07:54:38;;;;;;;;;;;;;;;11.74;61.60;100766.53;4906127;29;20036;-77
2021/04/13 07:57:32;;;;;;;19.08;14.80;;;;;;;11.95;60.76;100761.28;4909849;29;19918;-78
2021/04/13 08:00:06;;;;;;;20.23;15.85;;;;;;;11.92;61.15;100716.28;4911461;29;20084;-77
2021/04/13 08:02:32;;;;;;;18.67;15.65;;;;;;;12.13;60.57;100708.44;4943157;28;20050;-76
2021/04/13 08:04:59;;;;;;;18.25;14.95;;;;;;;12.35;60.96;100728.16;4969237;28;20422;-77
2021/04/13 08:07:31;;;;;;;17.90;13.93;;;;;;;12.49;59.47;100728.63;4967435;28;20098;-77
2021/04/13 08:10:02;;;;;;;19.20;13.63;;;;;;;12.72;59.39;100751.81;4989828;28;20045;-76
2021/04/13 08:12:34;;;;;;;15.27;12.88;;;;;;;12.59;60.34;100751.41;5032163;28;20032;-76
2021/04/13 08:15:02;;;;;;;17.60;13.25;;;;;;;12.63;60.56;100744.63;5031071;28;20056;-76
2021/04/13 08:17:31;;;;;;;17.38;13.02;;;;;;;12.10;60.70;100651.38;5032179;28;20109;-75
2021/04/13 08:20:06;;;;;;;18.25;14.02;;;;;;;12.23;60.68;100668.22;5030985;28;20021;-76
2021/04/13 08:23:11;;;;;;;17.92;14.15;;;;;;;12.54;61.53;100734.84;5032662;28;20029;-75
2021/04/13 08:25:45;;;;;;;18.42;12.73;;;;;;;12.55;61.00;100726.25;5033753;28;20143;-75
2021/04/13 08:28:42;;;;;;;17.95;14.77;;;;;;;12.52;61.19;100725.25;5026527;28;20488;-76
2021/04/13 08:34:28;;;;;;;19.45;13.32;;;;;;;12.79;59.02;100722.69;5006618;28;20079;-76
2021/04/13 08:37:07;;;;;;;18.33;14.23;;;;;;;12.82;59.38;100719.31;5007820;28;20080;-77
2021/04/13 08:39:43;;;;;;;13.73;11.75;;;;;;;12.89;59.28;100726.44;5002750;28;20611;-77
2021/04/13 08:42:35;;;;;;;16.05;12.48;;;;;;;13.11;58.09;100707.28;5005578;28;20102;-77
2021/04/13 08:45:28;;;;;;;18.73;13.07;;;;;;;12.89;57.18;100648.72;4991136;28;20129;-77
2021/04/13 08:48:01;;;;;;;15.95;12.50;;;;;;;13.16;58.39;100697.00;5005480;28;20051;-77
2021/04/13 08:50:38;;;;;;;16.02;12.43;;;;;;;13.18;58.29;100697.97;5007230;28;20421;-75
2021/04/13 08:53:11;;;;;;;16.77;12.40;;;;;;;13.16;59.27;100678.88;5003834;28;20038;-75
2021/04/13 08:55:36;;;;;;;15.95;11.80;;;;;;;13.33;60.00;100687.16;4988020;28;20120;-76
2021/04/13 08:58:13;;;;;;;15.38;11.77;;;;;;;13.47;59.19;100682.41;5004132;28;20543;-76
2021/04/13 09:00:50;;;;;;;15.73;11.65;;;;;;;13.66;58.76;100676.91;5007863;28;20046;-76
2021/04/13 09:03:21;;;;;;;19.25;13.18;;;;;;;13.66;58.48;100676.91;5007869;28;20066;-75
2021/04/13 09:06:06;;;;;;;14.52;11.77;;;;;;;13.74;58.96;100682.28;5023356;28;20048;-77
2021/04/13 09:08:51;;;;;;;14.40;11.55;;;;;;;13.82;58.43;100661.72;5046287;28;20029;-75
2021/04/13 09:11:26;;;;;;;13.23;10.48;;;;;;;14.04;57.35;100670.97;5051301;28;20104;-77
2021/04/13 09:14:22;;;;;;;15.50;11.73;;;;;;;14.14;56.73;100669.50;5049799;28;20131;-77
2021/04/13 09:17:04;;;;;;;17.20;11.38;;;;;;;14.13;57.20;100667.72;5039952;28;20025;-77
2021/04/13 09:19:33;;;;;;;26.40;11.80;;;;;;;14.08;57.53;100671.09;5048570;28;20028;-76
2021/04/13 09:22:14;;;;;;;14.43;11.15;;;;;;;13.95;59.31;100649.97;5049506;28;20056;-78
2021/04/13 09:24:43;;;;;;;14.80;9.80;;;;;;;13.96;59.06;100647.41;5049574;28;20033;-78
2021/04/13 09:27:24;;;;;;;11.52;9.90;;;;;;;13.71;58.55;100601.78;5050655;28;20051;-76
2021/04/13 09:29:54;;;;;;;13.43;9.48;;;;;;;14.13;57.62;100652.16;5065319;28;20398;-76
2021/04/13 09:32:26;;;;;;;19.90;9.77;;;;;;;14.14;58.45;100647.00;5048655;28;20040;-76
2021/04/13 09:35:06;;;;;;;13.93;9.65;;;;;;;14.08;57.69;100646.84;5046806;28;20032;-76
2021/04/13 09:37:58;;;;;;;22.20;14.77;;;;;;;13.94;56.77;100589.38;5042105;28;20049;-75
2021/04/13 09:40:26;;;;;;;12.90;10.48;;;;;;;14.26;57.33;100646.44;5049547;28;20498;-76
2021/04/13 09:43:12;;;;;;;30.60;20.63;;;;;;;14.36;57.25;100644.94;5034407;28;20041;-76
2021/04/13 09:46:22;;;;;;;20.10;13.73;;;;;;;14.49;56.55;100631.41;5042550;28;20688;-76
2021/04/13 09:49:13;;;;;;;13.25;10.60;;;;;;;14.60;56.08;100635.97;5021745;28;20498;-77
2021/04/13 09:52:08;;;;;;;12.63;9.38;;;;;;;14.65;55.86;100632.66;5052046;28;20453;-75
2021/04/13 09:54:47;;;;;;;13.38;9.80;;;;;;;14.67;56.29;100627.50;5053337;28;20044;-76
2021/04/13 09:57:31;;;;;;;13.98;11.70;;;;;;;14.83;56.33;100628.75;5060036;28;20068;-74
2021/04/13 10:00:24;;;;;;;14.23;10.15;;;;;;;14.95;55.54;100626.38;5051514;28;20128;-77
2021/04/13 10:03:20;;;;;;;13.00;9.10;;;;;;;14.98;56.24;100616.06;5051072;28;20521;-75
2021/04/13 10:05:48;;;;;;;16.35;9.52;;;;;;;14.67;56.20;100572.94;5051249;28;20462;-78
2021/04/13 10:08:24;;;;;;;10.63;8.25;;;;;;;15.09;55.29;100618.91;5033838;28;20029;-77
2021/04/13 10:10:55;;;;;;;11.68;8.73;;;;;;;15.08;54.52;100605.84;5032531;28;20074;-79
2021/04/13 10:13:39;;;;;;;12.60;8.32;;;;;;;15.28;54.39;100612.34;5051075;28;20116;-76
2021/04/13 10:16:14;;;;;;;9.50;8.07;;;;;;;15.25;54.64;100607.06;5048635;28;20584;-77
2021/04/13 10:19:23;;;;;;;12.05;7.75;;;;;;;15.32;54.04;100605.47;5050845;28;20052;-76
2021/04/13 10:22:22;;;;;;;10.65;8.15;;;;;;;15.35;55.51;100600.31;5032057;28;20043;-79
2021/04/13 10:25:12;;;;;;;9.27;7.15;;;;;;;15.44;54.11;100592.72;5047120;28;20037;-77
2021/04/13 10:28:02;;;;;;;16.27;8.00;;;;;;;15.65;53.25;100593.94;5052647;28;20028;-77
2021/04/13 10:30:58;;;;;;;9.88;7.15;;;;;;;15.56;53.35;100589.44;5050309;28;20037;-78
2021/04/13 10:33:42;;;;;;;10.70;7.97;;;;;;;15.68;52.52;100583.59;5053022;28;20033;-77
2021/04/13 10:36:16;;;;;;;10.07;7.57;;;;;;;15.73;52.10;100583.69;5053333;28;20471;-76
2021/04/13 10:39:07;;;;;;;9.73;7.40;;;;;;;15.68;52.33;100567.97;5053577;28;20070;-78
2021/04/13 10:41:54;;;;;;;10.20;7.45;;;;;;;15.69;52.51;100574.94;5052108;28;20056;-75
2021/04/13 10:44:44;;;;;;;11.02;7.20;;;;;;;15.54;52.94;100575.56;5052880;28;20029;-80
2021/04/13 10:47:27;;;;;;;9.70;7.70;;;;;;;15.65;54.41;100583.53;5050437;28;20028;-75
2021/04/13 10:50:20;;;;;;;9.77;6.97;;;;;;;15.77;51.83;100582.88;5052003;28;20087;-77
2021/04/13 10:53:16;;;;;;;10.82;7.18;;;;;;;15.76;51.70;100574.19;5051091;28;20017;-77
2021/04/13 10:56:18;;;;;;;10.40;7.15;;;;;;;15.71;51.89;100573.22;5049064;28;20025;-78
2021/04/13 10:59:14;;;;;;;11.15;6.88;;;;;;;15.78;50.74;100558.63;5048304;28;20032;-75
2021/04/13 11:01:47;;;;;;;10.50;7.18;;;;;;;15.83;50.67;100557.00;5049781;28;20028;-77
2021/04/13 11:04:16;;;;;;;11.82;7.78;;;;;;;15.82;52.09;100560.44;5051981;28;20017;-76
2021/04/13 11:07:31;;;;;;;10.43;6.95;;;;;;;15.75;51.55;100522.09;5051088;28;20021;-75
2021/04/13 11:10:02;;;;;;;10.55;7.13;;;;;;;15.90;50.77;100553.66;5049448;28;20020;-75
2021/04/13 11:12:48;;;;;;;10.45;6.88;;;;;;;15.81;50.17;100537.81;5052387;28;20049;-76
2021/04/13 11:15:42;;;;;;;11.00;7.32;;;;;;;15.82;50.26;100540.47;5051062;28;20402;-77
2021/04/13 11:18:29;;;;;;;15.85;7.57;;;;;;;15.72;51.30;100550.69;5006048;28;20132;-76
2021/04/13 11:21:32;;;;;;;12.65;7.55;;;;;;;15.75;51.11;100554.22;5009847;28;20037;-77
2021/04/13 11:24:34;;;;;;;10.60;8.00;;;;;;;15.86;50.72;100554.44;5009802;28;20022;-77
2021/04/13 11:27:09;;;;;;;10.82;7.47;;;;;;;15.81;51.84;100550.84;5007357;28;20129;-78
2021/04/13 11:30:11;;;;;;;14.13;8.40;;;;;;;15.91;51.37;100546.69;5009843;28;20152;-76
2021/04/13 11:33:04;;;;;;;12.57;8.73;;;;;;;15.80;53.18;100539.56;5009694;28;20372;-78
2021/04/13 11:35:43;;;;;;;10.85;9.18;;;;;;;15.81;52.81;100540.44;5008460;28;20041;-78
2021/04/13 11:38:26;;;;;;;11.95;8.98;;;;;;;15.87;53.39;100535.34;5026462;28;20037;-77
2021/04/13 11:41:16;;;;;;;12.30;8.55;;;;;;;15.86;54.03;100533.59;5009767;28;20045;-77
2021/04/13 11:43:57;;;;;;;11.07;9.65;;;;;;;15.82;53.81;100530.06;5007284;28;20029;-77
2021/04/13 11:46:49;;;;;;;13.57;8.57;;;;;;;15.85;55.14;100519.72;5007147;28;20117;-77
2021/04/13 11:49:33;;;;;;;11.63;8.32;;;;;;;15.92;54.29;100525.88;5008853;28;20053;-77
2021/04/13 11:52:06;;;;;;;12.18;8.82;;;;;;;15.90;53.87;100525.00;5009434;28;20180;-77
2021/04/13 11:54:43;;;;;;;15.70;9.23;;;;;;;16.00;52.94;100520.81;5029777;28;20049;-78
2021/04/13 11:57:25;;;;;;;12.52;8.68;;;;;;;16.01;52.88;100523.44;5050176;28;20021;-78
2021/04/13 12:00:09;;;;;;;10.75;8.27;;;;;;;15.98;53.35;100512.09;5048335;28;20037;-78
2021/04/13 12:02:38;;;;;;;11.63;8.52;;;;;;;15.95;54.30;100522.44;5049283;28;20044;-77